sensor_id;sensor_type;location;lat;lon;timestamp;P1;durP1;ratioP1;P2;durP2;ratioP2
1651;SDS011;823;49.028;8.454;2023-04-25T00:02:26;4.27;;;3.23;;
1651;SDS011;823;49.028;8.454;2023-04-25T00:07:28;6.20;;;3.43;;
1651;SDS011;823;49.028;8.454;2023-04-25T00:12:28;6.17;;;3.70;;
1651;SDS011;823;49.028;8.454;2023-04-25T00:17:28;4.27;;;3.17;;
1651;SDS011;823;49.028;8.454;2023-04-25T00:22:29;4.57;;;3.30;;
1651;SDS011;823;49.028;8.454;2023-04-25T00:27:30;4.37;;;3.57;;
1651;SDS011;823;49.028;8.454;2023-04-25T00:32:30;5.20;;;4.03;;
1651;SDS011;823;49.028;8.454;2023-04-25T00:37:31;8.20;;;3.93;;
1651;SDS011;823;49.028;8.454;2023-04-25T00:42:31;6.63;;;3.17;;
1651;SDS011;823;49.028;8.454;2023-04-25T00:47:32;6.00;;;3.60;;
1651;SDS011;823;49.028;8.454;2023-04-25T00:52:34;5.93;;;3.50;;
1651;SDS011;823;49.028;8.454;2023-04-25T00:57:34;5.17;;;2.97;;
1651;SDS011;823;49.028;8.454;2023-04-25T01:02:35;4.40;;;2.63;;
1651;SDS011;823;49.028;8.454;2023-04-25T01:07:36;4.30;;;3.00;;
1651;SDS011;823;49.028;8.454;2023-04-25T01:12:36;6.47;;;3.50;;
1651;SDS011;823;49.028;8.454;2023-04-25T01:17:37;5.03;;;2.93;;
1651;SDS011;823;49.028;8.454;2023-04-25T01:22:37;3.40;;;3.10;;
1651;SDS011;823;49.028;8.454;2023-04-25T01:27:38;4.30;;;2.60;;
1651;SDS011;823;49.028;8.454;2023-04-25T01:32:38;5.03;;;4.00;;
1651;SDS011;823;49.028;8.454;2023-04-25T01:37:40;5.20;;;2.77;;
1651;SDS011;823;49.028;8.454;2023-04-25T01:42:42;5.00;;;3.43;;
1651;SDS011;823;49.028;8.454;2023-04-25T01:47:44;4.97;;;3.20;;
1651;SDS011;823;49.028;8.454;2023-04-25T01:52:48;8.07;;;3.33;;
1651;SDS011;823;49.028;8.454;2023-04-25T01:57:49;6.40;;;3.57;;
1651;SDS011;823;49.028;8.454;2023-04-25T02:02:49;4.63;;;2.90;;
1651;SDS011;823;49.028;8.454;2023-04-25T02:07:50;6.47;;;3.17;;
1651;SDS011;823;49.028;8.454;2023-04-25T02:12:50;5.50;;;3.10;;
1651;SDS011;823;49.028;8.454;2023-04-25T02:17:51;5.93;;;3.27;;
1651;SDS011;823;49.028;8.454;2023-04-25T02:22:54;6.10;;;3.23;;
1651;SDS011;823;49.028;8.454;2023-04-25T02:27:54;9.37;;;3.07;;
1651;SDS011;823;49.028;8.454;2023-04-25T02:32:55;10.00;;;3.83;;
1651;SDS011;823;49.028;8.454;2023-04-25T02:37:56;6.10;;;4.10;;
1651;SDS011;823;49.028;8.454;2023-04-25T02:42:56;5.83;;;3.60;;
1651;SDS011;823;49.028;8.454;2023-04-25T02:47:57;6.23;;;3.47;;
1651;SDS011;823;49.028;8.454;2023-04-25T02:52:57;5.83;;;4.00;;
1651;SDS011;823;49.028;8.454;2023-04-25T02:57:57;12.50;;;4.30;;
1651;SDS011;823;49.028;8.454;2023-04-25T03:02:58;5.20;;;3.47;;
1651;SDS011;823;49.028;8.454;2023-04-25T03:07:58;11.63;;;3.97;;
1651;SDS011;823;49.028;8.454;2023-04-25T03:12:59;7.70;;;4.47;;
1651;SDS011;823;49.028;8.454;2023-04-25T03:17:59;5.27;;;3.50;;
1651;SDS011;823;49.028;8.454;2023-04-25T03:22:59;7.10;;;4.07;;
1651;SDS011;823;49.028;8.454;2023-04-25T03:28:00;5.17;;;3.30;;
1651;SDS011;823;49.028;8.454;2023-04-25T03:33:00;13.32;;;3.88;;
1651;SDS011;823;49.028;8.454;2023-04-25T03:38:00;6.20;;;4.03;;
1651;SDS011;823;49.028;8.454;2023-04-25T03:43:01;10.40;;;4.90;;
1651;SDS011;823;49.028;8.454;2023-04-25T03:48:01;8.68;;;4.70;;
1651;SDS011;823;49.028;8.454;2023-04-25T03:53:01;6.10;;;3.80;;
1651;SDS011;823;49.028;8.454;2023-04-25T03:58:02;6.43;;;3.73;;
1651;SDS011;823;49.028;8.454;2023-04-25T04:03:02;6.65;;;4.18;;
1651;SDS011;823;49.028;8.454;2023-04-25T04:08:03;7.77;;;4.20;;
1651;SDS011;823;49.028;8.454;2023-04-25T04:13:03;7.53;;;4.10;;
1651;SDS011;823;49.028;8.454;2023-04-25T04:18:03;8.80;;;4.87;;
1651;SDS011;823;49.028;8.454;2023-04-25T04:23:04;5.83;;;3.63;;
1651;SDS011;823;49.028;8.454;2023-04-25T04:28:05;7.30;;;4.60;;
1651;SDS011;823;49.028;8.454;2023-04-25T04:33:07;7.20;;;3.50;;
1651;SDS011;823;49.028;8.454;2023-04-25T04:38:07;7.73;;;3.93;;
1651;SDS011;823;49.028;8.454;2023-04-25T04:43:07;5.67;;;3.70;;
1651;SDS011;823;49.028;8.454;2023-04-25T04:48:10;7.40;;;4.37;;
1651;SDS011;823;49.028;8.454;2023-04-25T04:53:14;8.80;;;4.10;;
1651;SDS011;823;49.028;8.454;2023-04-25T04:58:14;8.20;;;3.90;;
1651;SDS011;823;49.028;8.454;2023-04-25T05:03:15;6.30;;;3.77;;
1651;SDS011;823;49.028;8.454;2023-04-25T05:08:15;8.57;;;4.07;;
1651;SDS011;823;49.028;8.454;2023-04-25T05:13:15;8.40;;;3.92;;
1651;SDS011;823;49.028;8.454;2023-04-25T05:18:16;7.77;;;4.20;;
1651;SDS011;823;49.028;8.454;2023-04-25T05:23:16;8.00;;;4.07;;
1651;SDS011;823;49.028;8.454;2023-04-25T05:28:16;11.27;;;4.00;;
1651;SDS011;823;49.028;8.454;2023-04-25T05:33:17;11.70;;;4.30;;
1651;SDS011;823;49.028;8.454;2023-04-25T05:38:17;7.03;;;4.57;;
1651;SDS011;823;49.028;8.454;2023-04-25T05:43:17;6.32;;;3.85;;
1651;SDS011;823;49.028;8.454;2023-04-25T05:48:18;5.45;;;4.13;;
1651;SDS011;823;49.028;8.454;2023-04-25T05:53:19;6.63;;;3.90;;
1651;SDS011;823;49.028;8.454;2023-04-25T05:58:19;7.30;;;4.37;;
1651;SDS011;823;49.028;8.454;2023-04-25T06:03:20;5.00;;;3.60;;
1651;SDS011;823;49.028;8.454;2023-04-25T06:08:21;6.90;;;4.30;;
1651;SDS011;823;49.028;8.454;2023-04-25T06:13:21;7.28;;;3.70;;
1651;SDS011;823;49.028;8.454;2023-04-25T06:18:21;5.67;;;3.20;;
1651;SDS011;823;49.028;8.454;2023-04-25T06:23:22;9.90;;;3.70;;
1651;SDS011;823;49.028;8.454;2023-04-25T06:28:22;4.43;;;3.67;;
1651;SDS011;823;49.028;8.454;2023-04-25T06:33:23;6.73;;;4.00;;
1651;SDS011;823;49.028;8.454;2023-04-25T06:38:24;7.37;;;3.67;;
1651;SDS011;823;49.028;8.454;2023-04-25T06:43:24;5.63;;;4.00;;
1651;SDS011;823;49.028;8.454;2023-04-25T06:48:25;6.37;;;3.43;;
1651;SDS011;823;49.028;8.454;2023-04-25T06:53:25;6.90;;;3.97;;
1651;SDS011;823;49.028;8.454;2023-04-25T06:58:25;7.13;;;3.87;;
1651;SDS011;823;49.028;8.454;2023-04-25T07:03:26;7.37;;;3.97;;
1651;SDS011;823;49.028;8.454;2023-04-25T07:08:26;6.90;;;4.07;;
1651;SDS011;823;49.028;8.454;2023-04-25T07:13:27;8.03;;;3.80;;
1651;SDS011;823;49.028;8.454;2023-04-25T07:18:27;6.20;;;3.97;;
1651;SDS011;823;49.028;8.454;2023-04-25T07:23:27;6.10;;;4.23;;
1651;SDS011;823;49.028;8.454;2023-04-25T07:28:28;9.10;;;4.70;;
1651;SDS011;823;49.028;8.454;2023-04-25T07:33:28;6.87;;;4.30;;
1651;SDS011;823;49.028;8.454;2023-04-25T07:38:29;11.30;;;5.13;;
1651;SDS011;823;49.028;8.454;2023-04-25T07:43:29;9.10;;;4.70;;
1651;SDS011;823;49.028;8.454;2023-04-25T07:48:30;7.63;;;5.27;;
1651;SDS011;823;49.028;8.454;2023-04-25T07:53:30;8.23;;;4.97;;
1651;SDS011;823;49.028;8.454;2023-04-25T07:58:31;11.63;;;5.87;;
1651;SDS011;823;49.028;8.454;2023-04-25T08:03:32;9.10;;;5.40;;
1651;SDS011;823;49.028;8.454;2023-04-25T08:08:32;10.07;;;5.63;;
1651;SDS011;823;49.028;8.454;2023-04-25T08:13:33;11.30;;;6.00;;
1651;SDS011;823;49.028;8.454;2023-04-25T08:18:33;8.80;;;6.40;;
1651;SDS011;823;49.028;8.454;2023-04-25T08:23:33;12.40;;;6.30;;
1651;SDS011;823;49.028;8.454;2023-04-25T08:28:34;9.60;;;6.27;;
1651;SDS011;823;49.028;8.454;2023-04-25T08:33:34;10.93;;;6.03;;
1651;SDS011;823;49.028;8.454;2023-04-25T08:38:34;10.87;;;6.13;;
1651;SDS011;823;49.028;8.454;2023-04-25T08:43:36;13.73;;;7.60;;
1651;SDS011;823;49.028;8.454;2023-04-25T08:48:37;12.40;;;7.00;;
1651;SDS011;823;49.028;8.454;2023-04-25T08:53:40;14.47;;;6.80;;
1651;SDS011;823;49.028;8.454;2023-04-25T08:58:43;11.10;;;6.20;;
1651;SDS011;823;49.028;8.454;2023-04-25T09:03:45;14.07;;;7.13;;
1651;SDS011;823;49.028;8.454;2023-04-25T09:08:49;13.60;;;6.73;;
1651;SDS011;823;49.028;8.454;2023-04-25T09:13:50;11.07;;;7.73;;
1651;SDS011;823;49.028;8.454;2023-04-25T09:19:19;17.50;;;7.90;;
1651;SDS011;823;49.028;8.454;2023-04-25T09:24:38;18.60;;;8.33;;
1651;SDS011;823;49.028;8.454;2023-04-25T09:29:41;15.73;;;9.03;;
1651;SDS011;823;49.028;8.454;2023-04-25T09:34:43;12.90;;;8.00;;
1651;SDS011;823;49.028;8.454;2023-04-25T09:39:45;15.97;;;9.10;;
1651;SDS011;823;49.028;8.454;2023-04-25T09:44:48;20.87;;;10.70;;
1651;SDS011;823;49.028;8.454;2023-04-25T09:49:51;19.20;;;10.10;;
1651;SDS011;823;49.028;8.454;2023-04-25T09:54:52;19.90;;;9.97;;
1651;SDS011;823;49.028;8.454;2023-04-25T09:59:54;25.43;;;11.67;;
1651;SDS011;823;49.028;8.454;2023-04-25T10:04:55;20.87;;;11.60;;
1651;SDS011;823;49.028;8.454;2023-04-25T10:10:00;27.83;;;11.37;;
1651;SDS011;823;49.028;8.454;2023-04-25T10:15:03;22.63;;;10.63;;
1651;SDS011;823;49.028;8.454;2023-04-25T10:20:04;25.80;;;11.93;;
1651;SDS011;823;49.028;8.454;2023-04-25T10:25:10;24.60;;;12.70;;
1651;SDS011;823;49.028;8.454;2023-04-25T10:30:14;25.33;;;12.47;;
1651;SDS011;823;49.028;8.454;2023-04-25T10:35:17;22.77;;;11.97;;
1651;SDS011;823;49.028;8.454;2023-04-25T10:40:21;31.20;;;12.57;;
1651;SDS011;823;49.028;8.454;2023-04-25T10:45:22;30.20;;;12.80;;
1651;SDS011;823;49.028;8.454;2023-04-25T10:50:23;18.77;;;10.23;;
1651;SDS011;823;49.028;8.454;2023-04-25T10:55:55;28.50;;;11.50;;
1651;SDS011;823;49.028;8.454;2023-04-25T11:00:55;23.77;;;11.40;;
1651;SDS011;823;49.028;8.454;2023-04-25T11:05:56;25.93;;;10.37;;
1651;SDS011;823;49.028;8.454;2023-04-25T11:10:56;25.07;;;11.40;;
1651;SDS011;823;49.028;8.454;2023-04-25T11:15:57;24.80;;;10.80;;
1651;SDS011;823;49.028;8.454;2023-04-25T11:20:57;27.73;;;10.80;;
1651;SDS011;823;49.028;8.454;2023-04-25T11:25:58;25.20;;;9.57;;
1651;SDS011;823;49.028;8.454;2023-04-25T11:31:02;23.53;;;8.77;;
1651;SDS011;823;49.028;8.454;2023-04-25T11:36:04;12.77;;;6.83;;
1651;SDS011;823;49.028;8.454;2023-04-25T11:41:05;19.57;;;7.70;;
1651;SDS011;823;49.028;8.454;2023-04-25T11:46:08;14.80;;;6.97;;
1651;SDS011;823;49.028;8.454;2023-04-25T11:51:09;23.00;;;8.60;;
1651;SDS011;823;49.028;8.454;2023-04-25T11:56:10;18.50;;;8.30;;
1651;SDS011;823;49.028;8.454;2023-04-25T12:01:24;123.60;;;13.80;;
1651;SDS011;823;49.028;8.454;2023-04-25T12:06:28;16.83;;;9.10;;
1651;SDS011;823;49.028;8.454;2023-04-25T12:11:30;19.50;;;8.47;;
1651;SDS011;823;49.028;8.454;2023-04-25T12:21:46;16.83;;;9.47;;
1651;SDS011;823;49.028;8.454;2023-04-25T12:31:52;23.57;;;9.00;;
1651;SDS011;823;49.028;8.454;2023-04-25T12:36:53;15.88;;;9.63;;
1651;SDS011;823;49.028;8.454;2023-04-25T12:41:54;15.13;;;7.60;;
1651;SDS011;823;49.028;8.454;2023-04-25T12:46:54;11.90;;;6.20;;
1651;SDS011;823;49.028;8.454;2023-04-25T12:51:55;13.63;;;5.93;;
1651;SDS011;823;49.028;8.454;2023-04-25T12:56:55;7.05;;;4.85;;
1651;SDS011;823;49.028;8.454;2023-04-25T13:01:56;10.43;;;5.40;;
1651;SDS011;823;49.028;8.454;2023-04-25T13:06:57;9.53;;;4.50;;
1651;SDS011;823;49.028;8.454;2023-04-25T13:11:57;15.80;;;6.80;;
1651;SDS011;823;49.028;8.454;2023-04-25T13:16:57;12.73;;;6.93;;
1651;SDS011;823;49.028;8.454;2023-04-25T13:21:58;10.87;;;5.67;;
1651;SDS011;823;49.028;8.454;2023-04-25T13:26:58;15.60;;;6.47;;
1651;SDS011;823;49.028;8.454;2023-04-25T13:31:59;12.65;;;5.45;;
1651;SDS011;823;49.028;8.454;2023-04-25T13:36:59;10.80;;;6.00;;
1651;SDS011;823;49.028;8.454;2023-04-25T13:42:00;11.20;;;5.33;;
1651;SDS011;823;49.028;8.454;2023-04-25T13:47:01;6.00;;;4.33;;
1651;SDS011;823;49.028;8.454;2023-04-25T13:52:02;8.87;;;5.17;;
1651;SDS011;823;49.028;8.454;2023-04-25T13:57:02;11.67;;;4.70;;
1651;SDS011;823;49.028;8.454;2023-04-25T14:02:02;14.83;;;4.83;;
1651;SDS011;823;49.028;8.454;2023-04-25T14:07:03;7.40;;;4.60;;
1651;SDS011;823;49.028;8.454;2023-04-25T14:12:03;7.20;;;4.10;;
1651;SDS011;823;49.028;8.454;2023-04-25T14:17:04;9.30;;;4.43;;
1651;SDS011;823;49.028;8.454;2023-04-25T14:22:04;11.33;;;4.47;;
1651;SDS011;823;49.028;8.454;2023-04-25T14:27:05;7.27;;;4.63;;
1651;SDS011;823;49.028;8.454;2023-04-25T14:32:06;9.60;;;5.00;;
1651;SDS011;823;49.028;8.454;2023-04-25T14:37:06;6.00;;;4.00;;
1651;SDS011;823;49.028;8.454;2023-04-25T14:42:06;13.33;;;5.00;;
1651;SDS011;823;49.028;8.454;2023-04-25T14:47:07;9.43;;;4.20;;
1651;SDS011;823;49.028;8.454;2023-04-25T14:52:07;7.80;;;3.77;;
1651;SDS011;823;49.028;8.454;2023-04-25T14:57:08;5.37;;;4.20;;
1651;SDS011;823;49.028;8.454;2023-04-25T15:02:08;6.00;;;3.85;;
1651;SDS011;823;49.028;8.454;2023-04-25T15:07:08;7.73;;;3.70;;
1651;SDS011;823;49.028;8.454;2023-04-25T15:12:09;7.43;;;4.83;;
1651;SDS011;823;49.028;8.454;2023-04-25T15:17:10;8.87;;;4.13;;
1651;SDS011;823;49.028;8.454;2023-04-25T15:22:13;9.67;;;4.60;;
1651;SDS011;823;49.028;8.454;2023-04-25T15:27:13;5.10;;;3.47;;
1651;SDS011;823;49.028;8.454;2023-04-25T15:32:14;7.50;;;3.97;;
1651;SDS011;823;49.028;8.454;2023-04-25T15:37:15;7.17;;;3.57;;
1651;SDS011;823;49.028;8.454;2023-04-25T15:42:15;4.80;;;3.43;;
1651;SDS011;823;49.028;8.454;2023-04-25T15:47:15;6.70;;;3.40;;
1651;SDS011;823;49.028;8.454;2023-04-25T15:52:16;6.53;;;3.60;;
1651;SDS011;823;49.028;8.454;2023-04-25T15:57:20;5.27;;;3.80;;
1651;SDS011;823;49.028;8.454;2023-04-25T16:02:21;10.32;;;3.70;;
1651;SDS011;823;49.028;8.454;2023-04-25T16:07:21;9.13;;;5.30;;
1651;SDS011;823;49.028;8.454;2023-04-25T16:12:22;8.90;;;5.30;;
1651;SDS011;823;49.028;8.454;2023-04-25T16:17:22;11.50;;;6.00;;
1651;SDS011;823;49.028;8.454;2023-04-25T16:22:23;11.17;;;5.30;;
1651;SDS011;823;49.028;8.454;2023-04-25T16:27:24;13.43;;;5.20;;
1651;SDS011;823;49.028;8.454;2023-04-25T16:32:24;8.93;;;5.60;;
1651;SDS011;823;49.028;8.454;2023-04-25T16:37:24;10.57;;;6.30;;
1651;SDS011;823;49.028;8.454;2023-04-25T16:42:25;15.97;;;6.40;;
1651;SDS011;823;49.028;8.454;2023-04-25T16:47:26;15.60;;;6.75;;
1651;SDS011;823;49.028;8.454;2023-04-25T16:52:26;13.57;;;7.10;;
1651;SDS011;823;49.028;8.454;2023-04-25T16:57:26;19.30;;;8.37;;
1651;SDS011;823;49.028;8.454;2023-04-25T17:02:27;19.07;;;8.40;;
1651;SDS011;823;49.028;8.454;2023-04-25T17:07:27;17.92;;;7.40;;
1651;SDS011;823;49.028;8.454;2023-04-25T17:12:27;20.08;;;7.93;;
1651;SDS011;823;49.028;8.454;2023-04-25T17:17:28;22.60;;;9.03;;
1651;SDS011;823;49.028;8.454;2023-04-25T17:22:28;24.53;;;8.33;;
1651;SDS011;823;49.028;8.454;2023-04-25T17:27:28;22.90;;;9.60;;
1651;SDS011;823;49.028;8.454;2023-04-25T17:32:29;18.20;;;8.97;;
1651;SDS011;823;49.028;8.454;2023-04-25T17:37:29;16.20;;;7.93;;
1651;SDS011;823;49.028;8.454;2023-04-25T17:42:30;16.13;;;8.53;;
1651;SDS011;823;49.028;8.454;2023-04-25T17:47:31;21.67;;;9.53;;
1651;SDS011;823;49.028;8.454;2023-04-25T17:52:31;18.93;;;9.40;;
1651;SDS011;823;49.028;8.454;2023-04-25T17:57:32;22.57;;;9.40;;
1651;SDS011;823;49.028;8.454;2023-04-25T18:02:32;15.25;;;9.18;;
1651;SDS011;823;49.028;8.454;2023-04-25T18:07:35;20.87;;;8.43;;
1651;SDS011;823;49.028;8.454;2023-04-25T18:12:36;17.00;;;9.20;;
1651;SDS011;823;49.028;8.454;2023-04-25T18:17:37;13.77;;;8.30;;
1651;SDS011;823;49.028;8.454;2023-04-25T18:22:41;23.63;;;10.37;;
1651;SDS011;823;49.028;8.454;2023-04-25T18:27:43;34.33;;;13.50;;
1651;SDS011;823;49.028;8.454;2023-04-25T18:32:44;20.23;;;9.03;;
1651;SDS011;823;49.028;8.454;2023-04-25T18:37:45;20.63;;;10.50;;
1651;SDS011;823;49.028;8.454;2023-04-25T18:42:45;19.40;;;10.25;;
1651;SDS011;823;49.028;8.454;2023-04-25T18:47:45;18.73;;;9.07;;
1651;SDS011;823;49.028;8.454;2023-04-25T18:52:46;17.13;;;9.70;;
1651;SDS011;823;49.028;8.454;2023-04-25T18:57:46;20.43;;;9.10;;
1651;SDS011;823;49.028;8.454;2023-04-25T19:02:46;26.67;;;10.43;;
1651;SDS011;823;49.028;8.454;2023-04-25T19:07:46;21.53;;;10.23;;
1651;SDS011;823;49.028;8.454;2023-04-25T19:12:47;50.30;;;19.27;;
1651;SDS011;823;49.028;8.454;2023-04-25T19:17:48;23.80;;;10.63;;
1651;SDS011;823;49.028;8.454;2023-04-25T19:22:48;24.63;;;10.67;;
1651;SDS011;823;49.028;8.454;2023-04-25T19:27:49;25.20;;;10.80;;
1651;SDS011;823;49.028;8.454;2023-04-25T19:32:49;19.60;;;9.30;;
1651;SDS011;823;49.028;8.454;2023-04-25T19:37:49;20.42;;;9.77;;
1651;SDS011;823;49.028;8.454;2023-04-25T19:42:50;28.42;;;10.20;;
1651;SDS011;823;49.028;8.454;2023-04-25T19:47:51;24.37;;;12.00;;
1651;SDS011;823;49.028;8.454;2023-04-25T19:52:52;34.33;;;12.30;;
1651;SDS011;823;49.028;8.454;2023-04-25T19:57:52;19.70;;;11.50;;
1651;SDS011;823;49.028;8.454;2023-04-25T20:02:53;21.93;;;11.00;;
1651;SDS011;823;49.028;8.454;2023-04-25T20:07:54;23.47;;;10.60;;
1651;SDS011;823;49.028;8.454;2023-04-25T20:12:54;23.15;;;10.85;;
1651;SDS011;823;49.028;8.454;2023-04-25T20:17:54;28.20;;;11.65;;
1651;SDS011;823;49.028;8.454;2023-04-25T20:22:55;22.87;;;10.83;;
1651;SDS011;823;49.028;8.454;2023-04-25T20:27:55;20.27;;;11.57;;
1651;SDS011;823;49.028;8.454;2023-04-25T20:32:55;19.92;;;11.02;;
1651;SDS011;823;49.028;8.454;2023-04-25T20:37:56;26.70;;;11.32;;
1651;SDS011;823;49.028;8.454;2023-04-25T20:42:56;23.07;;;10.83;;
1651;SDS011;823;49.028;8.454;2023-04-25T20:47:57;20.90;;;10.20;;
1651;SDS011;823;49.028;8.454;2023-04-25T20:52:58;18.40;;;10.00;;
1651;SDS011;823;49.028;8.454;2023-04-25T20:57:58;22.33;;;10.27;;
1651;SDS011;823;49.028;8.454;2023-04-25T21:02:59;28.00;;;11.83;;
1651;SDS011;823;49.028;8.454;2023-04-25T21:08:01;24.03;;;11.97;;
1651;SDS011;823;49.028;8.454;2023-04-25T21:13:02;24.90;;;8.97;;
1651;SDS011;823;49.028;8.454;2023-04-25T21:18:02;15.75;;;9.45;;
1651;SDS011;823;49.028;8.454;2023-04-25T21:23:02;20.73;;;9.20;;
1651;SDS011;823;49.028;8.454;2023-04-25T21:28:03;12.37;;;7.03;;
1651;SDS011;823;49.028;8.454;2023-04-25T21:33:03;15.20;;;7.00;;
1651;SDS011;823;49.028;8.454;2023-04-25T21:38:03;19.85;;;7.38;;
1651;SDS011;823;49.028;8.454;2023-04-25T21:43:04;18.10;;;8.60;;
1651;SDS011;823;49.028;8.454;2023-04-25T21:48:05;15.93;;;8.17;;
1651;SDS011;823;49.028;8.454;2023-04-25T21:53:05;15.77;;;8.00;;
1651;SDS011;823;49.028;8.454;2023-04-25T21:58:06;17.43;;;8.80;;
1651;SDS011;823;49.028;8.454;2023-04-25T22:03:06;18.00;;;8.80;;
1651;SDS011;823;49.028;8.454;2023-04-25T22:08:06;17.03;;;8.93;;
1651;SDS011;823;49.028;8.454;2023-04-25T22:13:07;18.00;;;9.20;;
1651;SDS011;823;49.028;8.454;2023-04-25T22:18:07;16.37;;;9.10;;
1651;SDS011;823;49.028;8.454;2023-04-25T22:23:07;25.48;;;9.23;;
1651;SDS011;823;49.028;8.454;2023-04-25T22:28:08;28.57;;;10.43;;
1651;SDS011;823;49.028;8.454;2023-04-25T22:33:09;15.40;;;9.50;;
1651;SDS011;823;49.028;8.454;2023-04-25T22:38:10;18.80;;;9.23;;
1651;SDS011;823;49.028;8.454;2023-04-25T22:43:10;17.90;;;9.00;;
1651;SDS011;823;49.028;8.454;2023-04-25T22:48:11;20.47;;;9.00;;
1651;SDS011;823;49.028;8.454;2023-04-25T22:53:11;18.60;;;9.20;;
1651;SDS011;823;49.028;8.454;2023-04-25T22:58:12;15.87;;;8.60;;
1651;SDS011;823;49.028;8.454;2023-04-25T23:03:12;20.10;;;9.65;;
1651;SDS011;823;49.028;8.454;2023-04-25T23:08:13;22.38;;;9.80;;
1651;SDS011;823;49.028;8.454;2023-04-25T23:13:16;21.80;;;9.83;;
1651;SDS011;823;49.028;8.454;2023-04-25T23:18:16;27.45;;;9.93;;
1651;SDS011;823;49.028;8.454;2023-04-25T23:23:17;27.67;;;10.25;;
1651;SDS011;823;49.028;8.454;2023-04-25T23:28:17;17.43;;;9.07;;
1651;SDS011;823;49.028;8.454;2023-04-25T23:33:17;18.27;;;10.17;;
1651;SDS011;823;49.028;8.454;2023-04-25T23:38:18;18.90;;;9.67;;
1651;SDS011;823;49.028;8.454;2023-04-25T23:43:19;23.80;;;9.60;;
1651;SDS011;823;49.028;8.454;2023-04-25T23:48:20;15.97;;;9.40;;
1651;SDS011;823;49.028;8.454;2023-04-25T23:53:20;14.20;;;8.60;;
1651;SDS011;823;49.028;8.454;2023-04-25T23:58:20;18.60;;;9.03;;
